sensor_id;sensor_type;location;lat;lon;timestamp;P1;durP1;ratioP1;P2;durP2;ratioP2
16270;SDS011;8243;49.048;8.396;2023-05-20T00:00:44;2.60;;;2.00;;
16270;SDS011;8243;49.048;8.396;2023-05-20T00:03:13;3.07;;;2.10;;
16270;SDS011;8243;49.048;8.396;2023-05-20T00:05:39;2.43;;;2.20;;
16270;SDS011;8243;49.048;8.396;2023-05-20T00:08:05;2.10;;;1.90;;
16270;SDS011;8243;49.048;8.396;2023-05-20T00:10:33;3.57;;;2.03;;
16270;SDS011;8243;49.048;8.396;2023-05-20T00:12:59;3.67;;;2.13;;
16270;SDS011;8243;49.048;8.396;2023-05-20T00:15:25;2.30;;;1.93;;
16270;SDS011;8243;49.048;8.396;2023-05-20T00:17:50;2.23;;;2.03;;
16270;SDS011;8243;49.048;8.396;2023-05-20T00:20:16;5.17;;;2.20;;
16270;SDS011;8243;49.048;8.396;2023-05-20T00:22:42;3.07;;;2.23;;
16270;SDS011;8243;49.048;8.396;2023-05-20T00:25:07;3.37;;;2.00;;
16270;SDS011;8243;49.048;8.396;2023-05-20T00:27:34;2.83;;;2.30;;
16270;SDS011;8243;49.048;8.396;2023-05-20T00:29:59;2.37;;;2.10;;
16270;SDS011;8243;49.048;8.396;2023-05-20T00:32:26;2.57;;;2.03;;
16270;SDS011;8243;49.048;8.396;2023-05-20T00:34:55;3.43;;;2.17;;
16270;SDS011;8243;49.048;8.396;2023-05-20T00:37:22;2.20;;;2.00;;
16270;SDS011;8243;49.048;8.396;2023-05-20T00:39:48;3.13;;;2.30;;
16270;SDS011;8243;49.048;8.396;2023-05-20T00:42:46;3.53;;;2.20;;
16270;SDS011;8243;49.048;8.396;2023-05-20T00:45:05;2.40;;;2.03;;
16270;SDS011;8243;49.048;8.396;2023-05-20T00:47:31;2.50;;;2.30;;
16270;SDS011;8243;49.048;8.396;2023-05-20T00:49:58;3.60;;;2.37;;
16270;SDS011;8243;49.048;8.396;2023-05-20T00:52:24;3.37;;;2.30;;
16270;SDS011;8243;49.048;8.396;2023-05-20T00:54:54;2.90;;;2.30;;
16270;SDS011;8243;49.048;8.396;2023-05-20T00:57:20;4.00;;;2.20;;
16270;SDS011;8243;49.048;8.396;2023-05-20T00:59:45;2.43;;;2.23;;
16270;SDS011;8243;49.048;8.396;2023-05-20T01:02:11;3.00;;;2.60;;
16270;SDS011;8243;49.048;8.396;2023-05-20T01:04:38;3.97;;;2.33;;
16270;SDS011;8243;49.048;8.396;2023-05-20T01:07:04;3.87;;;2.50;;
16270;SDS011;8243;49.048;8.396;2023-05-20T01:09:30;4.43;;;2.70;;
16270;SDS011;8243;49.048;8.396;2023-05-20T01:12:05;3.33;;;2.43;;
16270;SDS011;8243;49.048;8.396;2023-05-20T01:14:37;3.07;;;2.37;;
16270;SDS011;8243;49.048;8.396;2023-05-20T01:17:21;3.27;;;2.80;;
16270;SDS011;8243;49.048;8.396;2023-05-20T01:19:51;3.13;;;2.40;;
16270;SDS011;8243;49.048;8.396;2023-05-20T01:24:48;3.00;;;2.37;;
16270;SDS011;8243;49.048;8.396;2023-05-20T01:27:17;6.23;;;2.70;;
16270;SDS011;8243;49.048;8.396;2023-05-20T01:29:44;3.93;;;2.73;;
16270;SDS011;8243;49.048;8.396;2023-05-20T01:32:15;4.70;;;2.30;;
16270;SDS011;8243;49.048;8.396;2023-05-20T01:34:47;2.63;;;2.23;;
16270;SDS011;8243;49.048;8.396;2023-05-20T01:37:15;5.63;;;2.93;;
16270;SDS011;8243;49.048;8.396;2023-05-20T01:39:42;2.80;;;2.50;;
16270;SDS011;8243;49.048;8.396;2023-05-20T01:42:09;5.03;;;2.87;;
16270;SDS011;8243;49.048;8.396;2023-05-20T01:44:35;5.40;;;2.70;;
16270;SDS011;8243;49.048;8.396;2023-05-20T01:47:01;5.20;;;2.40;;
16270;SDS011;8243;49.048;8.396;2023-05-20T01:49:27;2.50;;;2.30;;
16270;SDS011;8243;49.048;8.396;2023-05-20T01:51:53;2.60;;;2.40;;
16270;SDS011;8243;49.048;8.396;2023-05-20T01:54:19;3.73;;;2.57;;
16270;SDS011;8243;49.048;8.396;2023-05-20T01:56:45;6.27;;;2.70;;
16270;SDS011;8243;49.048;8.396;2023-05-20T01:59:10;2.90;;;2.40;;
16270;SDS011;8243;49.048;8.396;2023-05-20T02:01:36;2.50;;;2.30;;
16270;SDS011;8243;49.048;8.396;2023-05-20T02:04:02;2.57;;;2.37;;
16270;SDS011;8243;49.048;8.396;2023-05-20T02:06:27;2.80;;;2.33;;
16270;SDS011;8243;49.048;8.396;2023-05-20T02:08:53;3.27;;;2.67;;
16270;SDS011;8243;49.048;8.396;2023-05-20T02:11:18;2.77;;;2.40;;
16270;SDS011;8243;49.048;8.396;2023-05-20T02:13:45;3.10;;;2.67;;
16270;SDS011;8243;49.048;8.396;2023-05-20T02:16:10;3.20;;;2.30;;
16270;SDS011;8243;49.048;8.396;2023-05-20T02:18:36;4.77;;;2.50;;
16270;SDS011;8243;49.048;8.396;2023-05-20T02:21:02;6.37;;;3.00;;
16270;SDS011;8243;49.048;8.396;2023-05-20T02:23:29;4.37;;;3.00;;
16270;SDS011;8243;49.048;8.396;2023-05-20T02:25:55;3.00;;;2.50;;
16270;SDS011;8243;49.048;8.396;2023-05-20T02:28:20;2.87;;;2.60;;
16270;SDS011;8243;49.048;8.396;2023-05-20T02:30:46;5.10;;;2.67;;
16270;SDS011;8243;49.048;8.396;2023-05-20T02:33:11;3.57;;;2.73;;
16270;SDS011;8243;49.048;8.396;2023-05-20T02:35:38;2.77;;;2.43;;
16270;SDS011;8243;49.048;8.396;2023-05-20T02:38:04;5.03;;;2.70;;
16270;SDS011;8243;49.048;8.396;2023-05-20T02:40:30;5.67;;;3.17;;
16270;SDS011;8243;49.048;8.396;2023-05-20T02:42:56;2.63;;;2.33;;
16270;SDS011;8243;49.048;8.396;2023-05-20T02:45:22;3.37;;;2.67;;
16270;SDS011;8243;49.048;8.396;2023-05-20T02:47:47;5.53;;;2.63;;
16270;SDS011;8243;49.048;8.396;2023-05-20T02:50:13;3.23;;;2.93;;
16270;SDS011;8243;49.048;8.396;2023-05-20T02:52:38;3.83;;;3.03;;
16270;SDS011;8243;49.048;8.396;2023-05-20T02:55:06;3.97;;;2.93;;
16270;SDS011;8243;49.048;8.396;2023-05-20T02:57:32;4.53;;;2.87;;
16270;SDS011;8243;49.048;8.396;2023-05-20T03:00:00;3.40;;;2.70;;
16270;SDS011;8243;49.048;8.396;2023-05-20T03:02:26;4.07;;;2.40;;
16270;SDS011;8243;49.048;8.396;2023-05-20T03:04:51;3.03;;;2.50;;
16270;SDS011;8243;49.048;8.396;2023-05-20T03:07:18;4.40;;;3.00;;
16270;SDS011;8243;49.048;8.396;2023-05-20T03:09:45;5.73;;;3.20;;
16270;SDS011;8243;49.048;8.396;2023-05-20T03:12:11;3.67;;;2.60;;
16270;SDS011;8243;49.048;8.396;2023-05-20T03:14:36;4.47;;;3.20;;
16270;SDS011;8243;49.048;8.396;2023-05-20T03:17:02;3.53;;;2.87;;
16270;SDS011;8243;49.048;8.396;2023-05-20T03:19:27;5.57;;;3.17;;
16270;SDS011;8243;49.048;8.396;2023-05-20T03:21:53;3.50;;;2.80;;
16270;SDS011;8243;49.048;8.396;2023-05-20T03:24:18;3.83;;;3.10;;
16270;SDS011;8243;49.048;8.396;2023-05-20T03:26:44;3.90;;;2.70;;
16270;SDS011;8243;49.048;8.396;2023-05-20T03:29:11;4.40;;;2.60;;
16270;SDS011;8243;49.048;8.396;2023-05-20T03:31:36;5.43;;;3.00;;
16270;SDS011;8243;49.048;8.396;2023-05-20T03:34:02;3.20;;;2.70;;
16270;SDS011;8243;49.048;8.396;2023-05-20T03:36:27;4.37;;;2.90;;
16270;SDS011;8243;49.048;8.396;2023-05-20T03:38:53;2.93;;;2.63;;
16270;SDS011;8243;49.048;8.396;2023-05-20T03:41:18;4.23;;;2.90;;
16270;SDS011;8243;49.048;8.396;2023-05-20T03:43:44;4.27;;;3.13;;
16270;SDS011;8243;49.048;8.396;2023-05-20T03:46:10;4.80;;;2.97;;
16270;SDS011;8243;49.048;8.396;2023-05-20T03:48:36;3.27;;;2.97;;
16270;SDS011;8243;49.048;8.396;2023-05-20T03:51:01;3.30;;;2.77;;
16270;SDS011;8243;49.048;8.396;2023-05-20T03:53:27;3.17;;;2.87;;
16270;SDS011;8243;49.048;8.396;2023-05-20T03:55:52;4.00;;;3.00;;
16270;SDS011;8243;49.048;8.396;2023-05-20T03:58:18;4.40;;;3.13;;
16270;SDS011;8243;49.048;8.396;2023-05-20T04:00:47;3.77;;;3.37;;
16270;SDS011;8243;49.048;8.396;2023-05-20T04:03:13;6.57;;;3.73;;
16270;SDS011;8243;49.048;8.396;2023-05-20T04:05:39;5.40;;;3.33;;
16270;SDS011;8243;49.048;8.396;2023-05-20T04:08:05;5.27;;;3.40;;
16270;SDS011;8243;49.048;8.396;2023-05-20T04:10:31;4.63;;;3.23;;
16270;SDS011;8243;49.048;8.396;2023-05-20T04:12:57;3.57;;;3.17;;
16270;SDS011;8243;49.048;8.396;2023-05-20T04:15:22;3.40;;;3.10;;
16270;SDS011;8243;49.048;8.396;2023-05-20T04:17:49;3.87;;;3.47;;
16270;SDS011;8243;49.048;8.396;2023-05-20T04:20:16;3.73;;;3.00;;
16270;SDS011;8243;49.048;8.396;2023-05-20T04:22:42;3.43;;;3.07;;
16270;SDS011;8243;49.048;8.396;2023-05-20T04:25:08;4.47;;;2.87;;
16270;SDS011;8243;49.048;8.396;2023-05-20T04:27:34;3.53;;;3.23;;
16270;SDS011;8243;49.048;8.396;2023-05-20T04:30:01;4.93;;;3.10;;
16270;SDS011;8243;49.048;8.396;2023-05-20T04:32:28;3.97;;;3.20;;
16270;SDS011;8243;49.048;8.396;2023-05-20T04:34:54;5.13;;;3.23;;
16270;SDS011;8243;49.048;8.396;2023-05-20T04:37:20;6.43;;;3.03;;
16270;SDS011;8243;49.048;8.396;2023-05-20T04:39:46;3.70;;;3.40;;
16270;SDS011;8243;49.048;8.396;2023-05-20T04:42:13;5.60;;;3.77;;
16270;SDS011;8243;49.048;8.396;2023-05-20T04:44:39;3.50;;;3.20;;
16270;SDS011;8243;49.048;8.396;2023-05-20T04:47:05;5.77;;;3.50;;
16270;SDS011;8243;49.048;8.396;2023-05-20T04:49:33;5.13;;;3.37;;
16270;SDS011;8243;49.048;8.396;2023-05-20T04:51:59;4.60;;;3.20;;
16270;SDS011;8243;49.048;8.396;2023-05-20T04:54:24;3.90;;;3.50;;
16270;SDS011;8243;49.048;8.396;2023-05-20T04:56:50;4.40;;;3.50;;
16270;SDS011;8243;49.048;8.396;2023-05-20T04:59:16;3.87;;;3.30;;
16270;SDS011;8243;49.048;8.396;2023-05-20T05:01:41;5.63;;;3.60;;
16270;SDS011;8243;49.048;8.396;2023-05-20T05:04:07;5.00;;;3.00;;
16270;SDS011;8243;49.048;8.396;2023-05-20T05:06:33;4.00;;;3.10;;
16270;SDS011;8243;49.048;8.396;2023-05-20T05:08:58;4.90;;;3.50;;
16270;SDS011;8243;49.048;8.396;2023-05-20T05:11:24;4.87;;;3.07;;
16270;SDS011;8243;49.048;8.396;2023-05-20T05:13:51;4.23;;;3.60;;
16270;SDS011;8243;49.048;8.396;2023-05-20T05:16:17;4.33;;;3.30;;
16270;SDS011;8243;49.048;8.396;2023-05-20T05:18:42;4.37;;;3.13;;
16270;SDS011;8243;49.048;8.396;2023-05-20T05:21:08;3.93;;;3.30;;
16270;SDS011;8243;49.048;8.396;2023-05-20T05:23:34;4.53;;;3.43;;
16270;SDS011;8243;49.048;8.396;2023-05-20T05:26:00;4.17;;;3.40;;
16270;SDS011;8243;49.048;8.396;2023-05-20T05:28:28;4.30;;;3.17;;
16270;SDS011;8243;49.048;8.396;2023-05-20T05:30:54;5.23;;;3.03;;
16270;SDS011;8243;49.048;8.396;2023-05-20T05:33:23;3.77;;;3.17;;
16270;SDS011;8243;49.048;8.396;2023-05-20T05:35:49;8.73;;;3.57;;
16270;SDS011;8243;49.048;8.396;2023-05-20T05:38:15;4.93;;;3.20;;
16270;SDS011;8243;49.048;8.396;2023-05-20T05:40:41;4.53;;;3.20;;
16270;SDS011;8243;49.048;8.396;2023-05-20T05:43:07;3.77;;;3.20;;
16270;SDS011;8243;49.048;8.396;2023-05-20T05:45:32;4.63;;;3.60;;
16270;SDS011;8243;49.048;8.396;2023-05-20T05:47:58;3.87;;;3.23;;
16270;SDS011;8243;49.048;8.396;2023-05-20T05:50:23;3.40;;;3.10;;
16270;SDS011;8243;49.048;8.396;2023-05-20T05:52:49;5.63;;;3.70;;
16270;SDS011;8243;49.048;8.396;2023-05-20T05:55:15;4.27;;;3.40;;
16270;SDS011;8243;49.048;8.396;2023-05-20T05:57:42;4.13;;;3.20;;
16270;SDS011;8243;49.048;8.396;2023-05-20T06:00:07;8.60;;;3.73;;
16270;SDS011;8243;49.048;8.396;2023-05-20T06:02:33;4.70;;;3.40;;
16270;SDS011;8243;49.048;8.396;2023-05-20T06:05:01;3.43;;;3.07;;
16270;SDS011;8243;49.048;8.396;2023-05-20T06:07:27;4.13;;;3.30;;
16270;SDS011;8243;49.048;8.396;2023-05-20T06:09:53;3.90;;;3.60;;
16270;SDS011;8243;49.048;8.396;2023-05-20T06:12:18;3.60;;;3.30;;
16270;SDS011;8243;49.048;8.396;2023-05-20T06:14:44;4.20;;;3.50;;
16270;SDS011;8243;49.048;8.396;2023-05-20T06:17:10;3.50;;;3.10;;
16270;SDS011;8243;49.048;8.396;2023-05-20T06:19:35;3.80;;;3.33;;
16270;SDS011;8243;49.048;8.396;2023-05-20T06:22:01;4.70;;;3.20;;
16270;SDS011;8243;49.048;8.396;2023-05-20T06:24:26;4.23;;;3.47;;
16270;SDS011;8243;49.048;8.396;2023-05-20T06:26:52;4.40;;;3.43;;
16270;SDS011;8243;49.048;8.396;2023-05-20T06:29:18;6.40;;;3.30;;
16270;SDS011;8243;49.048;8.396;2023-05-20T06:31:43;3.93;;;3.50;;
16270;SDS011;8243;49.048;8.396;2023-05-20T06:34:09;5.43;;;3.47;;
16270;SDS011;8243;49.048;8.396;2023-05-20T06:36:35;3.97;;;3.23;;
16270;SDS011;8243;49.048;8.396;2023-05-20T06:39:00;4.20;;;3.07;;
16270;SDS011;8243;49.048;8.396;2023-05-20T06:41:26;3.80;;;3.37;;
16270;SDS011;8243;49.048;8.396;2023-05-20T06:43:52;3.93;;;3.53;;
16270;SDS011;8243;49.048;8.396;2023-05-20T06:46:17;4.17;;;3.57;;
16270;SDS011;8243;49.048;8.396;2023-05-20T06:48:43;6.60;;;3.40;;
16270;SDS011;8243;49.048;8.396;2023-05-20T06:51:08;5.03;;;3.10;;
16270;SDS011;8243;49.048;8.396;2023-05-20T06:53:34;5.70;;;3.73;;
16270;SDS011;8243;49.048;8.396;2023-05-20T06:56:00;4.67;;;3.17;;
16270;SDS011;8243;49.048;8.396;2023-05-20T06:58:27;4.87;;;3.80;;
16270;SDS011;8243;49.048;8.396;2023-05-20T07:00:52;6.77;;;4.30;;
16270;SDS011;8243;49.048;8.396;2023-05-20T07:03:18;5.97;;;3.60;;
16270;SDS011;8243;49.048;8.396;2023-05-20T07:05:44;6.90;;;4.20;;
16270;SDS011;8243;49.048;8.396;2023-05-20T07:08:10;6.77;;;3.63;;
16270;SDS011;8243;49.048;8.396;2023-05-20T07:10:36;4.00;;;3.60;;
16270;SDS011;8243;49.048;8.396;2023-05-20T07:13:02;4.77;;;3.30;;
16270;SDS011;8243;49.048;8.396;2023-05-20T07:15:27;3.57;;;3.27;;
16270;SDS011;8243;49.048;8.396;2023-05-20T07:17:53;3.90;;;3.40;;
16270;SDS011;8243;49.048;8.396;2023-05-20T07:20:19;7.63;;;3.80;;
16270;SDS011;8243;49.048;8.396;2023-05-20T07:22:45;23.47;;;6.47;;
16270;SDS011;8243;49.048;8.396;2023-05-20T07:25:12;4.23;;;3.70;;
16270;SDS011;8243;49.048;8.396;2023-05-20T07:30:25;4.23;;;3.83;;
16270;SDS011;8243;49.048;8.396;2023-05-20T07:32:52;4.20;;;3.53;;
16270;SDS011;8243;49.048;8.396;2023-05-20T07:35:17;3.73;;;3.40;;
16270;SDS011;8243;49.048;8.396;2023-05-20T07:37:43;4.07;;;3.37;;
16270;SDS011;8243;49.048;8.396;2023-05-20T07:40:08;6.30;;;3.87;;
16270;SDS011;8243;49.048;8.396;2023-05-20T07:42:35;4.63;;;3.60;;
16270;SDS011;8243;49.048;8.396;2023-05-20T07:45:00;4.40;;;3.00;;
16270;SDS011;8243;49.048;8.396;2023-05-20T07:47:26;4.20;;;3.80;;
16270;SDS011;8243;49.048;8.396;2023-05-20T07:49:52;4.30;;;3.60;;
16270;SDS011;8243;49.048;8.396;2023-05-20T07:52:17;6.00;;;4.27;;
16270;SDS011;8243;49.048;8.396;2023-05-20T07:54:43;4.47;;;4.07;;
16270;SDS011;8243;49.048;8.396;2023-05-20T07:57:08;4.43;;;3.97;;
16270;SDS011;8243;49.048;8.396;2023-05-20T07:59:34;4.37;;;3.77;;
16270;SDS011;8243;49.048;8.396;2023-05-20T08:01:59;5.73;;;3.90;;
16270;SDS011;8243;49.048;8.396;2023-05-20T08:04:25;4.87;;;4.27;;
16270;SDS011;8243;49.048;8.396;2023-05-20T08:06:51;5.37;;;4.17;;
16270;SDS011;8243;49.048;8.396;2023-05-20T08:09:17;5.27;;;3.80;;
16270;SDS011;8243;49.048;8.396;2023-05-20T08:11:43;4.10;;;3.70;;
16270;SDS011;8243;49.048;8.396;2023-05-20T08:14:08;4.43;;;3.80;;
16270;SDS011;8243;49.048;8.396;2023-05-20T08:16:34;4.43;;;3.83;;
16270;SDS011;8243;49.048;8.396;2023-05-20T08:19:00;4.47;;;3.80;;
16270;SDS011;8243;49.048;8.396;2023-05-20T08:21:26;4.33;;;3.77;;
16270;SDS011;8243;49.048;8.396;2023-05-20T08:23:51;4.63;;;4.20;;
16270;SDS011;8243;49.048;8.396;2023-05-20T08:26:17;4.67;;;4.13;;
16270;SDS011;8243;49.048;8.396;2023-05-20T08:28:42;5.93;;;3.93;;
16270;SDS011;8243;49.048;8.396;2023-05-20T08:31:08;5.10;;;4.60;;
16270;SDS011;8243;49.048;8.396;2023-05-20T08:33:33;3.93;;;3.50;;
16270;SDS011;8243;49.048;8.396;2023-05-20T08:35:59;5.00;;;4.33;;
16270;SDS011;8243;49.048;8.396;2023-05-20T08:38:25;5.60;;;4.27;;
16270;SDS011;8243;49.048;8.396;2023-05-20T08:40:51;6.30;;;4.40;;
16270;SDS011;8243;49.048;8.396;2023-05-20T08:43:18;5.33;;;4.10;;
16270;SDS011;8243;49.048;8.396;2023-05-20T08:45:44;4.67;;;4.27;;
16270;SDS011;8243;49.048;8.396;2023-05-20T08:48:10;4.40;;;4.00;;
16270;SDS011;8243;49.048;8.396;2023-05-20T08:50:37;4.60;;;3.87;;
16270;SDS011;8243;49.048;8.396;2023-05-20T08:53:03;4.53;;;4.13;;
16270;SDS011;8243;49.048;8.396;2023-05-20T08:55:35;4.13;;;3.83;;
16270;SDS011;8243;49.048;8.396;2023-05-20T08:58:07;6.27;;;4.43;;
16270;SDS011;8243;49.048;8.396;2023-05-20T09:00:33;4.93;;;4.43;;
16270;SDS011;8243;49.048;8.396;2023-05-20T09:02:59;4.67;;;4.27;;
16270;SDS011;8243;49.048;8.396;2023-05-20T09:05:25;4.70;;;4.30;;
16270;SDS011;8243;49.048;8.396;2023-05-20T09:07:51;4.60;;;4.20;;
16270;SDS011;8243;49.048;8.396;2023-05-20T09:10:18;3.90;;;3.60;;
16270;SDS011;8243;49.048;8.396;2023-05-20T09:12:44;4.50;;;4.10;;
16270;SDS011;8243;49.048;8.396;2023-05-20T09:15:10;8.00;;;4.40;;
16270;SDS011;8243;49.048;8.396;2023-05-20T09:17:36;5.70;;;3.90;;
16270;SDS011;8243;49.048;8.396;2023-05-20T09:20:06;4.50;;;3.70;;
16270;SDS011;8243;49.048;8.396;2023-05-20T09:22:33;4.97;;;4.13;;
16270;SDS011;8243;49.048;8.396;2023-05-20T09:24:58;4.40;;;3.87;;
16270;SDS011;8243;49.048;8.396;2023-05-20T09:27:24;4.20;;;3.80;;
16270;SDS011;8243;49.048;8.396;2023-05-20T09:29:50;4.30;;;3.90;;
16270;SDS011;8243;49.048;8.396;2023-05-20T09:32:16;4.90;;;3.90;;
16270;SDS011;8243;49.048;8.396;2023-05-20T09:34:43;4.37;;;3.70;;
16270;SDS011;8243;49.048;8.396;2023-05-20T09:37:11;6.70;;;4.20;;
16270;SDS011;8243;49.048;8.396;2023-05-20T09:39:47;3.97;;;3.67;;
16270;SDS011;8243;49.048;8.396;2023-05-20T09:42:17;4.30;;;3.90;;
16270;SDS011;8243;49.048;8.396;2023-05-20T09:44:53;4.10;;;3.70;;
16270;SDS011;8243;49.048;8.396;2023-05-20T09:47:20;4.90;;;4.30;;
16270;SDS011;8243;49.048;8.396;2023-05-20T09:49:46;4.80;;;4.40;;
16270;SDS011;8243;49.048;8.396;2023-05-20T09:52:12;4.57;;;4.17;;
16270;SDS011;8243;49.048;8.396;2023-05-20T09:54:39;5.37;;;4.10;;
16270;SDS011;8243;49.048;8.396;2023-05-20T09:57:06;5.13;;;3.30;;
16270;SDS011;8243;49.048;8.396;2023-05-20T09:59:33;4.37;;;3.97;;
16270;SDS011;8243;49.048;8.396;2023-05-20T10:02:01;4.70;;;4.20;;
16270;SDS011;8243;49.048;8.396;2023-05-20T10:04:27;5.27;;;3.77;;
16270;SDS011;8243;49.048;8.396;2023-05-20T10:09:49;4.67;;;4.27;;
16270;SDS011;8243;49.048;8.396;2023-05-20T10:12:24;8.60;;;4.07;;
16270;SDS011;8243;49.048;8.396;2023-05-20T10:18:22;4.73;;;3.80;;
16270;SDS011;8243;49.048;8.396;2023-05-20T10:21:17;4.40;;;4.00;;
16270;SDS011;8243;49.048;8.396;2023-05-20T10:23:48;4.40;;;4.00;;
16270;SDS011;8243;49.048;8.396;2023-05-20T10:26:14;5.03;;;3.67;;
16270;SDS011;8243;49.048;8.396;2023-05-20T10:28:40;3.97;;;3.60;;
16270;SDS011;8243;49.048;8.396;2023-05-20T10:31:16;5.90;;;4.23;;
16270;SDS011;8243;49.048;8.396;2023-05-20T10:33:45;4.23;;;3.83;;
16270;SDS011;8243;49.048;8.396;2023-05-20T10:36:27;4.60;;;4.20;;
16270;SDS011;8243;49.048;8.396;2023-05-20T10:38:55;5.90;;;4.73;;
16270;SDS011;8243;49.048;8.396;2023-05-20T10:41:25;4.97;;;4.43;;
16270;SDS011;8243;49.048;8.396;2023-05-20T10:44:03;5.00;;;4.50;;
16270;SDS011;8243;49.048;8.396;2023-05-20T10:46:31;4.57;;;3.90;;
16270;SDS011;8243;49.048;8.396;2023-05-20T10:48:58;7.57;;;4.17;;
16270;SDS011;8243;49.048;8.396;2023-05-20T10:51:25;4.20;;;3.80;;
16270;SDS011;8243;49.048;8.396;2023-05-20T10:53:53;7.63;;;4.23;;
16270;SDS011;8243;49.048;8.396;2023-05-20T10:56:21;4.63;;;4.23;;
16270;SDS011;8243;49.048;8.396;2023-05-20T10:58:51;4.93;;;4.50;;
16270;SDS011;8243;49.048;8.396;2023-05-20T11:01:17;4.93;;;4.27;;
16270;SDS011;8243;49.048;8.396;2023-05-20T11:03:46;4.57;;;4.17;;
16270;SDS011;8243;49.048;8.396;2023-05-20T11:06:14;4.20;;;3.90;;
16270;SDS011;8243;49.048;8.396;2023-05-20T11:08:41;4.97;;;3.90;;
16270;SDS011;8243;49.048;8.396;2023-05-20T11:11:08;4.90;;;4.10;;
16270;SDS011;8243;49.048;8.396;2023-05-20T11:13:35;4.27;;;3.87;;
16270;SDS011;8243;49.048;8.396;2023-05-20T11:16:00;3.70;;;3.40;;
16270;SDS011;8243;49.048;8.396;2023-05-20T11:18:27;4.63;;;4.03;;
16270;SDS011;8243;49.048;8.396;2023-05-20T11:20:59;4.60;;;4.03;;
16270;SDS011;8243;49.048;8.396;2023-05-20T11:23:28;5.57;;;3.93;;
16270;SDS011;8243;49.048;8.396;2023-05-20T11:25:55;4.67;;;4.17;;
16270;SDS011;8243;49.048;8.396;2023-05-20T11:28:24;4.13;;;3.73;;
16270;SDS011;8243;49.048;8.396;2023-05-20T11:30:50;7.63;;;3.90;;
16270;SDS011;8243;49.048;8.396;2023-05-20T11:33:17;4.30;;;3.90;;
16270;SDS011;8243;49.048;8.396;2023-05-20T11:35:52;4.33;;;3.93;;
16270;SDS011;8243;49.048;8.396;2023-05-20T11:38:18;4.70;;;4.30;;
16270;SDS011;8243;49.048;8.396;2023-05-20T11:40:49;4.17;;;3.60;;
16270;SDS011;8243;49.048;8.396;2023-05-20T11:43:19;5.00;;;4.50;;
16270;SDS011;8243;49.048;8.396;2023-05-20T11:45:46;5.47;;;4.47;;
16270;SDS011;8243;49.048;8.396;2023-05-20T11:48:17;4.50;;;4.20;;
16270;SDS011;8243;49.048;8.396;2023-05-20T11:50:44;4.40;;;4.10;;
16270;SDS011;8243;49.048;8.396;2023-05-20T11:53:13;4.57;;;3.40;;
16270;SDS011;8243;49.048;8.396;2023-05-20T11:55:53;4.77;;;4.03;;
16270;SDS011;8243;49.048;8.396;2023-05-20T11:58:22;4.63;;;4.23;;
16270;SDS011;8243;49.048;8.396;2023-05-20T12:00:48;4.30;;;3.90;;
16270;SDS011;8243;49.048;8.396;2023-05-20T12:03:14;4.30;;;3.90;;
16270;SDS011;8243;49.048;8.396;2023-05-20T12:05:41;4.80;;;4.40;;
16270;SDS011;8243;49.048;8.396;2023-05-20T12:08:07;4.80;;;4.20;;
16270;SDS011;8243;49.048;8.396;2023-05-20T12:10:33;5.00;;;4.07;;
16270;SDS011;8243;49.048;8.396;2023-05-20T12:12:59;4.17;;;3.77;;
16270;SDS011;8243;49.048;8.396;2023-05-20T12:15:24;4.80;;;4.10;;
16270;SDS011;8243;49.048;8.396;2023-05-20T12:17:50;5.13;;;4.70;;
16270;SDS011;8243;49.048;8.396;2023-05-20T12:20:17;6.10;;;4.20;;
16270;SDS011;8243;49.048;8.396;2023-05-20T12:22:46;4.90;;;4.50;;
16270;SDS011;8243;49.048;8.396;2023-05-20T12:25:12;4.80;;;4.13;;
16270;SDS011;8243;49.048;8.396;2023-05-20T12:27:43;5.30;;;3.77;;
16270;SDS011;8243;49.048;8.396;2023-05-20T12:30:13;6.13;;;3.90;;
16270;SDS011;8243;49.048;8.396;2023-05-20T12:32:40;4.90;;;4.50;;
16270;SDS011;8243;49.048;8.396;2023-05-20T12:35:07;4.60;;;4.17;;
16270;SDS011;8243;49.048;8.396;2023-05-20T12:37:33;4.70;;;4.30;;
16270;SDS011;8243;49.048;8.396;2023-05-20T12:39:58;4.20;;;3.80;;
16270;SDS011;8243;49.048;8.396;2023-05-20T12:42:24;6.47;;;3.93;;
16270;SDS011;8243;49.048;8.396;2023-05-20T12:44:50;4.43;;;4.03;;
16270;SDS011;8243;49.048;8.396;2023-05-20T12:47:15;4.60;;;4.20;;
16270;SDS011;8243;49.048;8.396;2023-05-20T12:49:41;4.33;;;4.00;;
16270;SDS011;8243;49.048;8.396;2023-05-20T12:52:06;4.83;;;4.33;;
16270;SDS011;8243;49.048;8.396;2023-05-20T12:54:32;4.43;;;4.03;;
16270;SDS011;8243;49.048;8.396;2023-05-20T12:56:58;4.90;;;4.40;;
16270;SDS011;8243;49.048;8.396;2023-05-20T12:59:23;4.73;;;4.20;;
16270;SDS011;8243;49.048;8.396;2023-05-20T13:01:49;5.20;;;4.17;;
16270;SDS011;8243;49.048;8.396;2023-05-20T13:04:14;6.00;;;4.43;;
16270;SDS011;8243;49.048;8.396;2023-05-20T13:06:40;5.47;;;4.10;;
16270;SDS011;8243;49.048;8.396;2023-05-20T13:09:06;6.90;;;4.10;;
16270;SDS011;8243;49.048;8.396;2023-05-20T13:11:32;5.60;;;5.10;;
16270;SDS011;8243;49.048;8.396;2023-05-20T13:13:58;5.60;;;4.70;;
16270;SDS011;8243;49.048;8.396;2023-05-20T13:16:23;6.30;;;4.20;;
16270;SDS011;8243;49.048;8.396;2023-05-20T13:18:49;5.10;;;4.70;;
16270;SDS011;8243;49.048;8.396;2023-05-20T13:21:15;5.63;;;3.87;;
16270;SDS011;8243;49.048;8.396;2023-05-20T13:23:41;4.93;;;4.53;;
16270;SDS011;8243;49.048;8.396;2023-05-20T13:26:07;7.60;;;4.77;;
16270;SDS011;8243;49.048;8.396;2023-05-20T13:28:33;4.97;;;4.47;;
16270;SDS011;8243;49.048;8.396;2023-05-20T13:31:00;4.83;;;4.40;;
16270;SDS011;8243;49.048;8.396;2023-05-20T13:33:27;4.40;;;4.10;;
16270;SDS011;8243;49.048;8.396;2023-05-20T13:35:52;4.90;;;4.50;;
16270;SDS011;8243;49.048;8.396;2023-05-20T13:38:18;5.33;;;4.70;;
16270;SDS011;8243;49.048;8.396;2023-05-20T13:40:43;4.50;;;4.13;;
16270;SDS011;8243;49.048;8.396;2023-05-20T13:43:09;5.10;;;4.60;;
16270;SDS011;8243;49.048;8.396;2023-05-20T13:45:34;4.80;;;4.40;;
16270;SDS011;8243;49.048;8.396;2023-05-20T13:48:00;4.83;;;4.40;;
16270;SDS011;8243;49.048;8.396;2023-05-20T13:50:26;4.33;;;4.03;;
16270;SDS011;8243;49.048;8.396;2023-05-20T13:52:51;5.20;;;4.53;;
16270;SDS011;8243;49.048;8.396;2023-05-20T13:55:17;6.93;;;4.50;;
16270;SDS011;8243;49.048;8.396;2023-05-20T13:57:42;4.47;;;4.13;;
16270;SDS011;8243;49.048;8.396;2023-05-20T14:00:08;6.57;;;4.17;;
16270;SDS011;8243;49.048;8.396;2023-05-20T14:02:34;4.13;;;3.73;;
16270;SDS011;8243;49.048;8.396;2023-05-20T14:05:00;4.37;;;3.97;;
16270;SDS011;8243;49.048;8.396;2023-05-20T14:07:26;6.50;;;4.73;;
16270;SDS011;8243;49.048;8.396;2023-05-20T14:09:52;5.47;;;4.70;;
16270;SDS011;8243;49.048;8.396;2023-05-20T14:12:17;5.07;;;4.50;;
16270;SDS011;8243;49.048;8.396;2023-05-20T14:14:43;4.57;;;4.10;;
16270;SDS011;8243;49.048;8.396;2023-05-20T14:17:09;5.33;;;4.83;;
16270;SDS011;8243;49.048;8.396;2023-05-20T14:19:34;4.73;;;4.27;;
16270;SDS011;8243;49.048;8.396;2023-05-20T14:22:00;5.10;;;4.60;;
16270;SDS011;8243;49.048;8.396;2023-05-20T14:24:27;5.77;;;4.57;;
16270;SDS011;8243;49.048;8.396;2023-05-20T14:26:52;6.40;;;4.47;;
16270;SDS011;8243;49.048;8.396;2023-05-20T14:29:18;4.80;;;4.40;;
16270;SDS011;8243;49.048;8.396;2023-05-20T14:31:44;4.87;;;4.37;;
16270;SDS011;8243;49.048;8.396;2023-05-20T14:34:09;5.40;;;4.90;;
16270;SDS011;8243;49.048;8.396;2023-05-20T14:36:35;4.83;;;4.43;;
16270;SDS011;8243;49.048;8.396;2023-05-20T14:39:01;5.17;;;4.67;;
16270;SDS011;8243;49.048;8.396;2023-05-20T14:41:26;5.10;;;4.60;;
16270;SDS011;8243;49.048;8.396;2023-05-20T14:43:52;8.57;;;4.47;;
16270;SDS011;8243;49.048;8.396;2023-05-20T14:46:18;4.90;;;4.50;;
16270;SDS011;8243;49.048;8.396;2023-05-20T14:48:43;4.93;;;4.30;;
16270;SDS011;8243;49.048;8.396;2023-05-20T14:51:10;4.83;;;4.13;;
16270;SDS011;8243;49.048;8.396;2023-05-20T14:53:36;5.20;;;4.80;;
16270;SDS011;8243;49.048;8.396;2023-05-20T14:56:01;4.53;;;4.13;;
16270;SDS011;8243;49.048;8.396;2023-05-20T14:58:27;4.20;;;3.90;;
16270;SDS011;8243;49.048;8.396;2023-05-20T15:00:53;5.00;;;4.50;;
16270;SDS011;8243;49.048;8.396;2023-05-20T15:03:18;5.00;;;4.50;;
16270;SDS011;8243;49.048;8.396;2023-05-20T15:05:44;5.00;;;4.60;;
16270;SDS011;8243;49.048;8.396;2023-05-20T15:08:09;5.63;;;4.90;;